Time;durP1;ratioP1;P1;durP2;ratioP2;P2;SDS_P1;SDS_P2;PMS_P1;PMS_P2;Temp;Humidity;BMP_temperature;BMP_pressure;BME280_temperature;BME280_humidity;BME280_pressure;Samples;Min_cycle;Max_cycle;Signal;HPM_P1;HPM_P2
2023/08/17 00:00:19;;;;;;;6.57;4.45;;;;;;;24.26;100.00;100559.44;5050795;28;20102;-70
2023/08/17 00:02:45;;;;;;;6.88;4.22;;;;;;;24.43;100.00;100579.78;5051301;28;20066;-70
2023/08/17 00:05:11;;;;;;;6.55;4.50;;;;;;;24.12;100.00;100555.28;5050238;28;20111;-70
2023/08/17 00:07:36;;;;;;;7.80;4.72;;;;;;;24.20;100.00;100558.13;5051594;28;20040;-70
2023/08/17 00:10:02;;;;;;;7.82;4.22;;;;;;;24.67;100.00;100594.38;5050896;28;20029;-70
2023/08/17 00:12:28;;;;;;;5.50;4.10;;;;;;;24.78;100.00;100615.22;5032735;28;20029;-71
2023/08/17 00:14:54;;;;;;;7.28;4.18;;;;;;;24.17;100.00;100567.91;5050507;28;20110;-71
2023/08/17 00:17:20;;;;;;;10.55;4.20;;;;;;;24.61;100.00;100609.59;5050618;28;20479;-70
2023/08/17 00:19:46;;;;;;;6.82;4.00;;;;;;;24.57;100.00;100613.38;5033058;28;20502;-70
2023/08/17 00:22:11;;;;;;;7.55;4.10;;;;;;;24.69;100.00;100607.25;5050647;28;20111;-71
2023/08/17 00:24:37;;;;;;;9.70;4.28;;;;;;;24.65;100.00;100614.47;5050453;28;20063;-70
2023/08/17 00:27:03;;;;;;;6.05;4.07;;;;;;;24.65;100.00;100590.22;5050632;28;20040;-72
2023/08/17 00:29:29;;;;;;;6.78;4.25;;;;;;;24.27;100.00;100555.88;5050756;28;20033;-71
2023/08/17 00:31:55;;;;;;;6.97;3.88;;;;;;;24.14;100.00;100549.97;5050921;28;20033;-71
2023/08/17 00:34:20;;;;;;;7.68;4.18;;;;;;;24.15;100.00;100557.63;5050142;28;20039;-70
2023/08/17 00:36:46;;;;;;;5.65;4.00;;;;;;;24.65;100.00;100600.63;5050681;28;20459;-71
2023/08/17 00:39:11;;;;;;;9.35;4.03;;;;;;;24.15;100.00;100565.44;5050032;28;20416;-71
2023/08/17 00:41:36;;;;;;;7.32;4.68;;;;;;;24.27;100.00;100620.88;5050540;28;20404;-71
2023/08/17 00:44:02;;;;;;;6.88;4.10;;;;;;;24.37;100.00;100599.28;5050138;28;20479;-70
2023/08/17 00:46:30;;;;;;;5.70;4.40;;;;;;;23.81;100.00;100551.47;5050717;28;20029;-70
2023/08/17 00:48:56;;;;;;;11.25;4.82;;;;;;;24.22;100.00;100610.00;5050600;28;20550;-71
2023/08/17 00:51:23;;;;;;;8.07;4.78;;;;;;;23.91;100.00;100609.63;5050002;28;20033;-71
2023/08/17 00:53:51;;;;;;;6.30;4.40;;;;;;;24.03;100.00;100592.31;5050351;28;20037;-70
2023/08/17 00:56:17;;;;;;;7.53;4.82;;;;;;;23.63;100.00;100591.78;5050323;28;20033;-71
2023/08/17 00:58:43;;;;;;;7.95;4.57;;;;;;;23.45;100.00;100524.78;5050749;28;20095;-70
2023/08/17 01:01:08;;;;;;;6.03;4.97;;;;;;;23.60;100.00;100586.81;5050619;28;20025;-71
2023/08/17 01:03:34;;;;;;;7.85;4.95;;;;;;;23.81;100.00;100558.47;5050216;28;20025;-71
2023/08/17 01:06:02;;;;;;;8.05;4.93;;;;;;;23.23;100.00;100526.28;5050597;28;20045;-71
2023/08/17 01:08:29;;;;;;;8.05;5.03;;;;;;;23.42;100.00;100540.56;5032502;28;20093;-71
2023/08/17 01:11:06;;;;;;;5.78;4.32;;;;;;;23.52;100.00;100552.78;5032031;28;20029;-70
2023/08/17 01:13:51;;;;;;;11.07;5.20;;;;;;;23.43;100.00;100487.72;5050658;28;20033;-71
2023/08/17 01:16:24;;;;;;;7.97;5.18;;;;;;;23.05;100.00;100512.03;5050113;28;20056;-70
2023/08/17 01:18:51;;;;;;;7.85;4.82;;;;;;;23.47;100.00;100483.97;5032150;28;20029;-70
2023/08/17 01:21:20;;;;;;;7.20;4.75;;;;;;;23.49;100.00;100536.59;5050132;28;20100;-70
2023/08/17 01:23:46;;;;;;;8.73;4.40;;;;;;;23.37;100.00;100530.53;5050269;28;20499;-70
2023/08/17 01:26:15;;;;;;;8.32;5.10;;;;;;;23.26;100.00;100507.91;5050582;28;20033;-70
2023/08/17 01:28:42;;;;;;;7.45;4.95;;;;;;;23.20;100.00;100474.59;5034657;28;20029;-70
2023/08/17 01:31:08;;;;;;;7.72;4.88;;;;;;;23.60;100.00;100536.63;5053435;28;20109;-71
2023/08/17 01:33:44;;;;;;;6.15;4.68;;;;;;;23.52;100.00;100537.19;5053759;28;20112;-71
2023/08/17 01:36:18;;;;;;;10.05;4.93;;;;;;;23.65;100.00;100530.16;5053702;28;20032;-71
2023/08/17 01:38:44;;;;;;;5.97;4.05;;;;;;;23.30;100.00;100490.34;5053880;28;20435;-71
2023/08/17 01:41:13;;;;;;;7.53;4.20;;;;;;;23.24;100.00;100489.00;5053513;28;20037;-71
2023/08/17 01:43:41;;;;;;;5.53;4.05;;;;;;;23.33;100.00;100476.34;5035888;28;20411;-71
2023/08/17 01:46:07;;;;;;;8.20;4.10;;;;;;;23.41;100.00;100487.84;5035738;28;20056;-71
2023/08/17 01:48:32;;;;;;;6.60;4.18;;;;;;;23.67;100.00;100523.09;5053362;28;20555;-71
2023/08/17 01:50:58;;;;;;;8.65;4.32;;;;;;;23.34;100.00;100488.38;5053209;28;20035;-70
2023/08/17 01:53:23;;;;;;;8.60;4.30;;;;;;;23.69;100.00;100535.97;5053822;28;20031;-70
2023/08/17 01:55:49;;;;;;;8.18;4.50;;;;;;;23.47;100.00;100500.38;5035508;28;20032;-71
2023/08/17 01:58:14;;;;;;;5.85;4.28;;;;;;;23.37;100.00;100482.97;5053081;28;20116;-71
2023/08/17 02:00:40;;;;;;;7.22;4.25;;;;;;;23.49;100.00;100489.88;5053104;28;20036;-70
2023/08/17 02:03:05;;;;;;;5.68;4.25;;;;;;;23.78;100.00;100522.31;5053160;28;20025;-71
2023/08/17 02:05:30;;;;;;;7.55;4.32;;;;;;;23.68;100.00;100535.16;5053221;28;20540;-70
2023/08/17 02:07:56;;;;;;;5.70;4.20;;;;;;;23.34;100.00;100455.47;5052884;28;20049;-71
2023/08/17 02:10:21;;;;;;;6.03;4.32;;;;;;;22.85;100.00;100429.63;5052944;28;20029;-71
2023/08/17 02:12:47;;;;;;;5.80;4.25;;;;;;;23.25;100.00;100533.97;5053067;28;20032;-71
2023/08/17 02:15:12;;;;;;;8.63;4.60;;;;;;;23.12;100.00;100494.25;5053004;28;20480;-71
2023/08/17 02:17:38;;;;;;;9.07;4.85;;;;;;;23.02;100.00;100514.84;5052808;28;20475;-71
2023/08/17 02:20:04;;;;;;;6.45;4.28;;;;;;;23.08;100.00;100446.94;5034785;28;20029;-71
2023/08/17 02:22:29;;;;;;;5.80;4.72;;;;;;;23.18;100.00;100525.78;5053133;28;20033;-71
2023/08/17 02:24:55;;;;;;;7.63;4.60;;;;;;;22.90;100.00;100468.16;5053231;28;20549;-70
2023/08/17 02:27:20;;;;;;;8.00;4.53;;;;;;;22.63;100.00;100470.13;5052920;28;20120;-71
2023/08/17 02:29:45;;;;;;;7.72;4.47;;;;;;;22.61;100.00;100451.25;5052596;28;20029;-71
2023/08/17 02:32:11;;;;;;;6.90;4.68;;;;;;;22.91;100.00;100511.34;5052723;28;20112;-71
2023/08/17 02:34:36;;;;;;;6.60;4.40;;;;;;;22.76;100.00;100445.81;5052403;28;20041;-70
2023/08/17 02:37:02;;;;;;;9.20;4.40;;;;;;;23.06;100.00;100448.81;5052200;28;20341;-69
2023/08/17 02:39:27;;;;;;;6.55;4.45;;;;;;;23.21;100.00;100509.19;5052422;28;20033;-70
2023/08/17 02:41:52;;;;;;;6.72;4.80;;;;;;;23.15;100.00;100476.72;5052496;28;20059;-69
2023/08/17 02:44:18;;;;;;;7.78;4.68;;;;;;;23.39;100.00;100487.13;5052430;28;20029;-70
2023/08/17 02:46:43;;;;;;;7.78;4.22;;;;;;;23.02;100.00;100446.53;5052660;28;20025;-70
2023/08/17 02:49:09;;;;;;;7.53;4.40;;;;;;;23.13;100.00;100457.00;5052024;28;20483;-70
2023/08/17 02:51:34;;;;;;;6.28;4.50;;;;;;;23.15;100.00;100437.78;5052492;28;20037;-70
2023/08/17 02:53:59;;;;;;;6.18;4.60;;;;;;;23.17;100.00;100497.34;5052242;28;20029;-70
2023/08/17 02:56:25;;;;;;;10.23;4.75;;;;;;;23.34;100.00;100504.78;5034301;28;20035;-71
2023/08/17 02:58:50;;;;;;;10.38;4.80;;;;;;;23.14;100.00;100493.22;5051763;28;20106;-70
2023/08/17 03:01:16;;;;;;;8.65;4.57;;;;;;;22.93;100.00;100447.22;5052112;28;20476;-71
2023/08/17 03:03:41;;;;;;;9.13;4.85;;;;;;;22.95;100.00;100451.38;5051579;28;20036;-70
2023/08/17 03:06:08;;;;;;;6.25;5.00;;;;;;;22.92;100.00;100450.72;5052044;28;20049;-70
2023/08/17 03:08:33;;;;;;;7.30;5.15;;;;;;;22.98;100.00;100450.28;5051903;28;20108;-70
2023/08/17 03:10:58;;;;;;;6.80;4.80;;;;;;;23.43;100.00;100491.16;5052109;28;20060;-71
2023/08/17 03:13:24;;;;;;;6.55;4.90;;;;;;;23.28;100.00;100510.38;5051468;28;20484;-70
2023/08/17 03:15:49;;;;;;;8.55;4.70;;;;;;;23.32;100.00;100504.06;5052043;28;20033;-70
2023/08/17 03:18:15;;;;;;;8.07;4.72;;;;;;;23.15;100.00;100515.63;5062500;28;20043;-70
2023/08/17 03:20:40;;;;;;;7.85;5.03;;;;;;;22.73;100.00;100447.78;5052814;28;20040;-70
2023/08/17 03:23:07;;;;;;;8.88;5.35;;;;;;;23.02;100.00;100501.03;5071040;28;20033;-69
2023/08/17 03:25:34;;;;;;;7.75;5.60;;;;;;;22.91;100.00;100516.53;5071546;28;20024;-70
2023/08/17 03:28:00;;;;;;;10.30;5.80;;;;;;;23.19;100.00;100483.31;5071611;28;20525;-69
2023/08/17 03:30:25;;;;;;;8.38;5.47;;;;;;;23.03;100.00;100497.50;5071095;28;20036;-70
2023/08/17 03:32:50;;;;;;;10.63;5.30;;;;;;;22.98;100.00;100510.78;5071227;28;20040;-70
2023/08/17 03:35:16;;;;;;;7.28;4.95;;;;;;;23.40;100.00;100501.75;5071163;28;20043;-69
2023/08/17 03:37:41;;;;;;;12.27;5.00;;;;;;;23.20;100.00;100487.56;5053432;28;20036;-70
2023/08/17 03:40:07;;;;;;;12.57;5.05;;;;;;;22.84;100.00;100448.69;5071256;28;20048;-70
2023/08/17 03:42:33;;;;;;;9.63;5.68;;;;;;;23.24;100.00;100503.75;5053327;28;20062;-71
2023/08/17 03:44:58;;;;;;;15.40;5.80;;;;;;;22.93;100.00;100486.13;5071186;28;20483;-71
2023/08/17 03:47:24;;;;;;;17.85;6.70;;;;;;;22.56;100.00;100458.50;5052824;28;20487;-70
2023/08/17 03:49:49;;;;;;;16.50;6.65;;;;;;;22.55;100.00;100472.38;5070887;28;20086;-70
2023/08/17 03:52:14;;;;;;;15.20;6.28;;;;;;;22.68;100.00;100514.72;5070669;28;20031;-70
2023/08/17 03:54:40;;;;;;;15.80;6.68;;;;;;;22.48;100.00;100502.25;5055640;28;20031;-70
2023/08/17 03:57:05;;;;;;;14.65;6.45;;;;;;;22.67;100.00;100502.69;5053173;28;20033;-70
2023/08/17 03:59:31;;;;;;;15.02;6.85;;;;;;;22.55;100.00;100482.75;5050900;28;20466;-72
2023/08/17 04:01:56;;;;;;;13.07;6.60;;;;;;;22.30;100.00;100481.84;5050467;28;20484;-71
2023/08/17 04:04:21;;;;;;;11.68;6.88;;;;;;;22.05;100.00;100396.38;5050748;28;20055;-71
2023/08/17 04:06:47;;;;;;;12.68;6.03;;;;;;;22.70;100.00;100424.69;5033000;28;20458;-71
2023/08/17 04:09:12;;;;;;;16.50;6.22;;;;;;;22.96;100.00;100504.06;5050358;28;20036;-71
2023/08/17 04:11:38;;;;;;;9.43;5.72;;;;;;;22.99;100.00;100490.88;5050616;28;20040;-71
2023/08/17 04:14:04;;;;;;;14.70;6.53;;;;;;;22.83;100.00;100503.28;5050478;28;20025;-70
2023/08/17 04:16:29;;;;;;;9.82;6.03;;;;;;;22.96;100.00;100486.72;5050328;28;20035;-70
2023/08/17 04:18:55;;;;;;;9.63;5.97;;;;;;;22.91;100.00;100467.25;5050347;28;20119;-71
2023/08/17 04:21:21;;;;;;;11.60;6.05;;;;;;;22.39;100.00;100442.34;5050469;28;20033;-70
2023/08/17 04:23:46;;;;;;;9.80;5.97;;;;;;;22.94;100.00;100475.63;5050555;28;20025;-70
2023/08/17 04:26:12;;;;;;;9.60;5.68;;;;;;;23.28;100.00;100474.88;5050740;28;20031;-73
2023/08/17 04:28:37;;;;;;;12.48;6.10;;;;;;;23.18;100.00;100475.66;5050697;28;20029;-72
2023/08/17 04:31:03;;;;;;;10.73;6.13;;;;;;;23.35;100.00;100472.72;5050170;28;20029;-71
2023/08/17 04:33:28;;;;;;;9.43;6.05;;;;;;;23.38;100.00;100490.63;5050608;28;20029;-71
2023/08/17 04:35:54;;;;;;;8.80;5.60;;;;;;;23.57;100.00;100475.38;5032016;28;20041;-71
2023/08/17 04:38:20;;;;;;;11.70;6.18;;;;;;;23.02;100.00;100457.75;5050422;28;20040;-71
2023/08/17 04:40:46;;;;;;;13.43;6.55;;;;;;;23.63;100.00;100492.28;5052971;28;20104;-71
2023/08/17 04:43:11;;;;;;;18.15;6.82;;;;;;;24.29;100.00;100461.25;5049619;28;20039;-79
2023/08/17 04:45:37;;;;;;;11.13;5.82;;;;;;;23.77;100.00;100440.94;5051418;28;20120;-75
2023/08/17 04:48:02;;;;;;;11.98;5.65;;;;;;;23.75;100.00;100444.63;5052900;28;20057;-76
2023/08/17 04:50:28;;;;;;;14.38;5.63;;;;;;;24.27;100.00;100501.28;5051813;28;20032;-76
2023/08/17 04:52:53;;;;;;;8.35;5.18;;;;;;;24.45;100.00;100495.53;5051792;28;20021;-77
2023/08/17 04:55:19;;;;;;;12.90;5.43;;;;;;;24.67;100.00;100500.72;5050460;28;20028;-75
2023/08/17 04:57:44;;;;;;;10.20;5.00;;;;;;;24.71;100.00;100506.50;5050828;28;20052;-75
2023/08/17 05:00:10;;;;;;;13.57;4.88;;;;;;;24.84;100.00;100507.22;5050511;28;20037;-74
2023/08/17 05:02:37;;;;;;;11.05;5.20;;;;;;;24.94;100.00;100487.34;5051353;28;20498;-75
2023/08/17 05:05:07;;;;;;;9.52;4.78;;;;;;;25.16;100.00;100483.84;5037199;28;20549;-74
2023/08/17 05:07:33;;;;;;;11.60;5.28;;;;;;;25.47;100.00;100502.09;5054586;28;20048;-75
2023/08/17 05:09:59;;;;;;;8.13;5.22;;;;;;;25.70;100.00;100503.69;5054445;28;20032;-76
2023/08/17 05:12:25;;;;;;;7.00;4.47;;;;;;;25.76;100.00;100468.47;5037448;28;20098;-74
2023/08/17 05:14:50;;;;;;;10.90;4.38;;;;;;;26.13;100.00;100520.97;5054799;28;20483;-75
2023/08/17 05:17:15;;;;;;;11.98;4.40;;;;;;;26.15;100.00;100466.91;5054296;28;20041;-74
2023/08/17 05:19:41;;;;;;;6.32;4.00;;;;;;;25.70;100.00;100437.72;5054473;28;20032;-75
2023/08/17 05:22:12;;;;;;;7.50;4.10;;;;;;;26.54;100.00;100541.81;5055080;28;20029;-74
2023/08/17 05:24:38;;;;;;;10.05;3.88;;;;;;;26.68;100.00;100551.91;5055010;28;20060;-75
2023/08/17 05:27:03;;;;;;;7.30;4.30;;;;;;;26.16;100.00;100486.84;5054540;28;20487;-74
2023/08/17 05:29:28;;;;;;;6.28;4.20;;;;;;;26.44;100.00;100486.16;5036930;28;20027;-75
2023/08/17 05:31:54;;;;;;;7.88;3.78;;;;;;;26.55;100.00;100507.75;5054837;28;20124;-74
2023/08/17 05:34:19;;;;;;;7.80;4.18;;;;;;;26.48;100.00;100484.94;5054888;28;20036;-75
2023/08/17 05:36:45;;;;;;;7.10;3.88;;;;;;;26.86;100.00;100502.53;5054618;28;20029;-76
2023/08/17 05:39:10;;;;;;;7.85;4.03;;;;;;;26.88;100.00;100530.13;5054714;28;20029;-76
2023/08/17 05:41:36;;;;;;;7.68;3.88;;;;;;;26.77;100.00;100519.81;5055043;28;20025;-76
2023/08/17 05:44:02;;;;;;;9.43;4.20;;;;;;;27.08;100.00;100490.06;5054849;28;20025;-72
2023/08/17 05:46:27;;;;;;;8.00;3.92;;;;;;;27.66;100.00;100548.44;5053824;28;20037;-75
2023/08/17 05:48:52;;;;;;;5.55;3.78;;;;;;;27.50;100.00;100515.97;5036689;28;20530;-74
2023/08/17 05:51:18;;;;;;;5.03;3.83;;;;;;;27.92;100.00;100556.53;5054621;28;20025;-74
2023/08/17 05:53:43;;;;;;;6.10;3.75;;;;;;;28.05;100.00;100549.25;5054145;28;20036;-75
2023/08/17 05:56:09;;;;;;;5.30;3.78;;;;;;;28.24;100.00;100555.28;5054047;28;20021;-74
2023/08/17 05:58:34;;;;;;;10.02;3.60;;;;;;;27.51;100.00;100515.00;5054362;28;20024;-74
2023/08/17 06:01:10;;;;;;;5.05;3.45;;;;;;;27.79;100.00;100501.91;5054247;28;20501;-73
2023/08/17 06:03:37;;;;;;;5.80;3.80;;;;;;;28.13;100.00;100542.34;5054091;28;20025;-75
2023/08/17 06:06:02;;;;;;;6.43;3.85;;;;;;;28.31;100.00;100507.63;5054007;28;20179;-75
2023/08/17 06:08:28;;;;;;;10.52;3.72;;;;;;;28.39;100.00;100500.69;5054321;28;20537;-76
2023/08/17 06:10:53;;;;;;;7.80;3.42;;;;;;;28.86;100.00;100540.75;5054131;28;20029;-73
2023/08/17 06:13:19;;;;;;;5.05;3.53;;;;;;;28.70;100.00;100562.31;5052792;28;20029;-74
2023/08/17 06:15:44;;;;;;;7.70;3.38;;;;;;;29.36;100.00;100547.22;5053667;28;20108;-74
2023/08/17 06:18:10;;;;;;;5.63;3.50;;;;;;;29.01;100.00;100485.09;5053075;28;20049;-75
2023/08/17 06:20:35;;;;;;;4.65;3.33;;;;;;;29.89;100.00;100536.72;5053663;28;20443;-74
2023/08/17 06:23:00;;;;;;;6.10;3.53;;;;;;;29.81;100.00;100536.69;5052946;28;20041;-74
2023/08/17 06:25:26;;;;;;;4.32;3.55;;;;;;;30.16;100.00;100533.13;5053411;28;20127;-74
2023/08/17 06:27:51;;;;;;;4.50;3.20;;;;;;;29.61;100.00;100486.16;5053040;28;20111;-74
2023/08/17 06:30:17;;;;;;;5.68;3.13;;;;;;;29.71;100.00;100486.06;5053895;28;20100;-74
2023/08/17 06:32:43;;;;;;;6.72;3.40;;;;;;;29.96;100.00;100550.88;5053652;28;20033;-76
2023/08/17 06:35:09;;;;;;;5.18;3.40;;;;;;;29.79;100.00;100494.03;5053774;28;20025;-76
2023/08/17 06:37:34;;;;;;;4.53;3.17;;;;;;;29.61;100.00;100503.69;5036219;28;20039;-76
2023/08/17 06:40:00;;;;;;;6.43;3.00;;;;;;;30.29;100.00;100558.00;5035989;28;20033;-76
2023/08/17 06:42:25;;;;;;;3.97;2.97;;;;;;;29.93;100.00;100506.59;5053453;28;20036;-73
2023/08/17 06:44:51;;;;;;;4.45;3.08;;;;;;;30.46;100.00;100509.06;5035807;28;20040;-76
2023/08/17 06:47:16;;;;;;;6.80;3.30;;;;;;;29.93;100.00;100527.59;5053461;28;20029;-75
2023/08/17 06:49:42;;;;;;;6.43;3.10;;;;;;;29.88;100.00;100514.09;5053343;28;20056;-76
2023/08/17 06:52:07;;;;;;;9.65;3.30;;;;;;;29.38;100.00;100507.72;5053439;28;20040;-76
2023/08/17 06:54:33;;;;;;;6.70;2.97;;;;;;;30.03;100.00;100549.28;5035578;28;20029;-76
2023/08/17 06:56:58;;;;;;;8.30;3.15;;;;;;;29.87;100.00;100552.59;5053041;28;20037;-76
2023/08/17 06:59:24;;;;;;;3.90;2.95;;;;;;;30.33;100.00;100537.53;5053852;28;20051;-76
2023/08/17 07:01:49;;;;;;;6.03;3.28;;;;;;;30.30;100.00;100536.06;5053202;28;20029;-75
2023/08/17 07:04:15;;;;;;;6.60;3.33;;;;;;;29.53;100.00;100483.47;5052709;28;20466;-75
2023/08/17 07:06:41;;;;;;;7.47;2.95;;;;;;;29.97;100.00;100535.97;5052374;28;20045;-74
2023/08/17 07:09:06;;;;;;;6.78;2.97;;;;;;;30.13;100.00;100523.75;5052361;28;20033;-72
2023/08/17 07:11:32;;;;;;;6.47;3.33;;;;;;;30.70;100.00;100525.72;5034483;28;20060;-73
2023/08/17 07:13:58;;;;;;;6.57;3.63;;;;;;;30.53;100.00;100516.13;5034206;28;20033;-70
2023/08/17 07:16:23;;;;;;;5.68;3.15;;;;;;;30.68;100.00;100456.75;5051846;28;20484;-73
2023/08/17 07:18:49;;;;;;;4.57;3.20;;;;;;;31.41;100.00;100499.84;5052237;28;20104;-73
2023/08/17 07:21:14;;;;;;;7.38;3.20;;;;;;;30.93;100.00;100439.28;5052262;28;20033;-73
2023/08/17 07:23:44;;;;;;;5.50;3.40;;;;;;;31.16;100.00;100474.47;5052087;28;20032;-73
2023/08/17 07:26:09;;;;;;;9.20;3.60;;;;;;;30.93;100.00;100493.66;5033061;28;20056;-75
2023/08/17 07:28:35;;;;;;;8.05;3.45;;;;;;;31.05;100.00;100451.13;5051998;28;20116;-74
2023/08/17 07:31:00;;;;;;;6.00;3.90;;;;;;;31.02;100.00;100453.28;5052137;28;20048;-74
2023/08/17 07:33:26;;;;;;;7.93;3.88;;;;;;;31.44;100.00;100406.63;5051804;28;20407;-73
2023/08/17 07:35:54;;;;;;;8.80;3.80;;;;;;;31.97;100.00;100440.28;5034291;28;20086;-73
2023/08/17 07:38:19;;;;;;;7.15;3.83;;;;;;;30.93;100.00;100399.06;5051772;28;20036;-74
2023/08/17 07:40:45;;;;;;;9.85;4.43;;;;;;;31.22;100.00;100458.03;5051963;28;20029;-73
2023/08/17 07:43:11;;;;;;;6.18;4.00;;;;;;;31.05;100.00;100476.59;5071973;28;20028;-73
2023/08/17 07:45:36;;;;;;;6.32;3.75;;;;;;;31.56;100.00;100465.81;5051438;28;20056;-73
2023/08/17 07:48:03;;;;;;;4.88;4.05;;;;;;;31.13;100.00;100409.09;5052903;28;20079;-72
2023/08/17 07:50:28;;;;;;;9.02;4.38;;;;;;;31.48;100.00;100418.47;5051436;28;20071;-73
2023/08/17 07:52:54;;;;;;;6.28;3.88;;;;;;;31.93;100.00;100433.72;5050516;28;20053;-77
2023/08/17 07:55:19;;;;;;;6.13;4.25;;;;;;;32.20;100.00;100368.31;5051160;28;20411;-71
2023/08/17 07:57:44;;;;;;;7.45;3.80;;;;;;;32.27;100.00;100423.72;5051019;28;20037;-72
2023/08/17 08:00:11;;;;;;;7.88;3.95;;;;;;;31.55;100.00;100401.84;5051798;28;20037;-73
2023/08/17 08:02:36;;;;;;;6.65;3.80;;;;;;;32.18;100.00;100412.41;5051016;28;20044;-71
2023/08/17 08:05:02;;;;;;;8.93;3.85;;;;;;;31.63;100.00;100467.59;5057308;28;20029;-73
2023/08/17 08:07:27;;;;;;;6.20;3.90;;;;;;;32.08;100.00;100451.28;5073219;28;20086;-74
2023/08/17 08:09:52;;;;;;;10.60;4.20;;;;;;;32.19;100.00;100395.59;5059155;28;20078;-73
2023/08/17 08:12:18;;;;;;;7.32;4.40;;;;;;;32.32;100.00;100442.47;5033519;28;20036;-73
2023/08/17 08:14:43;;;;;;;5.72;4.03;;;;;;;32.04;100.00;100451.78;5033630;28;20511;-73
2023/08/17 08:17:09;;;;;;;7.88;4.30;;;;;;;32.67;100.00;100423.53;5050870;28;20031;-73
2023/08/17 08:19:35;;;;;;;8.38;4.57;;;;;;;31.84;100.00;100480.25;5051380;28;20506;-75
2023/08/17 08:22:02;;;;;;;10.43;4.93;;;;;;;31.65;100.00;100441.16;5051246;28;20376;-73
2023/08/17 08:24:33;;;;;;;7.40;4.57;;;;;;;32.61;100.00;100444.47;5051206;28;20021;-73
2023/08/17 08:26:59;;;;;;;8.95;4.82;;;;;;;32.29;100.00;100455.94;5051335;28;20060;-74
2023/08/17 08:29:24;;;;;;;11.48;5.20;;;;;;;32.90;100.00;100371.66;5051431;28;20112;-74
2023/08/17 08:31:49;;;;;;;8.73;4.93;;;;;;;32.83;100.00;100426.06;5033186;28;20411;-74
2023/08/17 08:34:15;;;;;;;8.63;5.65;;;;;;;32.35;100.00;100466.63;5051049;28;20048;-73
2023/08/17 08:36:40;;;;;;;7.90;4.13;;;;;;;32.91;100.00;100455.00;5050583;28;20037;-72
2023/08/17 08:39:05;;;;;;;6.60;4.00;;;;;;;33.73;100.00;100404.09;5051137;28;20029;-72
2023/08/17 08:41:32;;;;;;;7.60;3.70;;;;;;;33.94;100.00;100406.00;5051070;28;20051;-74
2023/08/17 08:43:58;;;;;;;5.70;3.50;;;;;;;33.79;100.00;100340.03;5033134;28;20454;-74
2023/08/17 08:46:26;;;;;;;3.88;3.05;;;;;;;33.01;100.00;100423.19;5033661;28;20033;-75
2023/08/17 08:48:54;;;;;;;7.53;3.58;;;;;;;32.88;100.00;100429.00;5051740;28;20036;-77
2023/08/17 08:51:26;;;;;;;7.55;3.35;;;;;;;32.55;100.00;100406.47;5033658;28;20029;-74
2023/08/17 08:54:02;;;;;;;5.72;3.35;;;;;;;33.92;100.00;100386.88;5051013;28;20029;-73
2023/08/17 08:56:31;;;;;;;7.57;3.13;;;;;;;34.55;100.00;100370.41;5051271;28;20028;-74
2023/08/17 08:58:58;;;;;;;6.65;3.15;;;;;;;33.88;100.00;100390.88;5051467;28;20037;-75
2023/08/17 09:01:25;;;;;;;4.43;3.17;;;;;;;33.18;100.00;100409.69;5050965;28;20084;-74
2023/08/17 09:03:52;;;;;;;5.78;2.88;;;;;;;33.95;100.00;100386.53;5050526;28;20033;-74
2023/08/17 09:06:19;;;;;;;4.38;3.15;;;;;;;33.61;100.00;100339.56;5050560;28;20148;-74
2023/08/17 09:08:45;;;;;;;7.57;3.30;;;;;;;33.36;100.00;100342.63;5050583;28;20021;-73
2023/08/17 09:11:11;;;;;;;6.50;3.30;;;;;;;33.74;100.00;100338.91;5051065;28;20483;-73
2023/08/17 09:13:36;;;;;;;5.50;3.10;;;;;;;34.07;100.00;100390.38;5032383;28;20044;-74
2023/08/17 09:16:02;;;;;;;7.43;2.85;;;;;;;33.50;100.00;100376.94;5050164;28;20029;-74
2023/08/17 09:18:27;;;;;;;6.07;3.00;;;;;;;33.51;100.00;100404.16;5049848;28;20041;-74
2023/08/17 09:20:54;;;;;;;5.40;3.53;;;;;;;33.28;100.00;100360.16;5050319;28;20040;-75
2023/08/17 09:23:21;;;;;;;3.72;3.05;;;;;;;33.58;100.00;100419.06;5032816;28;20032;-73
2023/08/17 09:25:49;;;;;;;6.32;3.03;;;;;;;33.91;100.00;100409.00;5053736;28;20044;-72
2023/08/17 09:28:16;;;;;;;9.60;3.33;;;;;;;33.53;100.00;100379.22;5028447;28;20422;-71
2023/08/17 09:30:55;;;;;;;7.57;3.03;;;;;;;34.66;100.00;100396.34;5070006;28;20029;-72
2023/08/17 09:33:29;;;;;;;6.40;2.95;;;;;;;33.21;100.00;100355.78;5051727;28;20035;-72
2023/08/17 09:35:56;;;;;;;3.88;3.03;;;;;;;33.51;100.00;100354.84;5069712;28;20601;-72
2023/08/17 09:38:21;;;;;;;6.57;3.00;;;;;;;34.20;100.00;100397.63;5070160;28;20037;-73
2023/08/17 09:40:48;;;;;;;5.25;2.90;;;;;;;33.45;100.00;100354.72;5070136;28;20028;-72
2023/08/17 09:43:18;;;;;;;4.93;3.08;;;;;;;34.54;100.00;100400.50;5070110;28;20063;-72
2023/08/17 09:45:47;;;;;;;6.13;3.00;;;;;;;33.25;100.00;100429.09;5070221;28;20032;-72
2023/08/17 09:48:15;;;;;;;10.90;2.97;;;;;;;32.78;100.00;100404.72;5051931;28;20090;-75
2023/08/17 09:50:42;;;;;;;5.32;3.00;;;;;;;33.83;100.00;100357.09;5074070;28;20095;-70
2023/08/17 09:53:12;;;;;;;6.30;3.40;;;;;;;32.87;100.00;100418.63;5055306;28;20534;-73
2023/08/17 09:55:40;;;;;;;4.20;2.97;;;;;;;33.64;100.00;100434.19;5073028;28;20033;-72
2023/08/17 09:58:07;;;;;;;3.15;2.63;;;;;;;32.76;100.00;100387.44;5073003;28;20123;-73
2023/08/17 10:00:34;;;;;;;6.60;2.95;;;;;;;33.46;100.00;100420.47;5073682;28;20028;-72
2023/08/17 10:03:02;;;;;;;7.38;3.00;;;;;;;32.88;100.00;100394.72;5073124;28;20033;-72
2023/08/17 10:05:31;;;;;;;5.57;3.15;;;;;;;33.83;100.00;100443.41;5073644;28;20035;-74
2023/08/17 10:07:59;;;;;;;5.22;3.30;;;;;;;34.12;100.00;100439.97;5073323;28;20020;-74
2023/08/17 10:10:27;;;;;;;6.68;2.70;;;;;;;34.18;100.00;100366.13;5073036;28;20079;-73
2023/08/17 10:13:06;;;;;;;4.88;3.15;;;;;;;33.28;100.00;100456.09;5056424;28;20123;-75
2023/08/17 10:15:34;;;;;;;8.75;3.15;;;;;;;33.43;100.00;100456.97;5072917;28;20119;-73
2023/08/17 10:18:37;;;;;;;6.45;3.22;;;;;;;32.86;100.00;100491.59;5073325;28;20044;-73
2023/08/17 10:21:10;;;;;;;4.35;3.28;;;;;;;32.96;100.00;100465.03;5070272;28;20511;-73
2023/08/17 10:23:37;;;;;;;4.10;3.20;;;;;;;33.24;100.00;100394.97;5072745;28;20073;-72
2023/08/17 10:26:04;;;;;;;3.58;3.25;;;;;;;32.56;100.00;100441.56;5072973;28;20036;-72
2023/08/17 10:28:32;;;;;;;4.93;3.30;;;;;;;33.06;100.00;100474.38;5073185;28;20032;-73
2023/08/17 10:30:58;;;;;;;7.28;3.40;;;;;;;33.08;100.00;100448.66;5073252;28;20025;-72
2023/08/17 10:33:25;;;;;;;6.18;3.08;;;;;;;32.90;100.00;100500.81;5054773;28;20036;-72
2023/08/17 10:35:52;;;;;;;9.60;3.50;;;;;;;32.78;100.00;100498.75;5072997;28;20107;-72
2023/08/17 10:38:18;;;;;;;6.68;3.92;;;;;;;32.59;100.00;100486.81;5072699;28;20039;-73
2023/08/17 10:40:43;;;;;;;6.47;3.40;;;;;;;32.51;100.00;100447.34;5072860;28;20449;-73
2023/08/17 10:43:11;;;;;;;6.30;3.30;;;;;;;33.08;100.00;100487.41;5072780;28;20400;-74
2023/08/17 10:45:38;;;;;;;5.22;3.40;;;;;;;32.79;100.00;100421.31;5073032;28;20036;-73
2023/08/17 10:48:07;;;;;;;6.45;3.70;;;;;;;33.89;100.00;100454.03;5072838;28;20070;-75
2023/08/17 10:50:33;;;;;;;6.15;3.42;;;;;;;33.79;100.00;100447.41;5072368;28;20059;-73
2023/08/17 10:53:04;;;;;;;6.07;3.70;;;;;;;33.17;100.00;100471.34;5072341;28;20482;-75
2023/08/17 10:55:40;;;;;;;6.53;3.35;;;;;;;33.78;100.00;100457.16;5072877;28;20036;-74
2023/08/17 10:58:10;;;;;;;9.90;3.63;;;;;;;33.31;100.00;100382.72;5072741;28;20071;-72
2023/08/17 11:00:37;;;;;;;4.57;3.13;;;;;;;33.35;100.00;100404.28;5072451;28;20035;-72
2023/08/17 11:03:07;;;;;;;4.93;3.90;;;;;;;33.95;100.00;100448.03;5072337;28;20509;-73
2023/08/17 11:05:40;;;;;;;5.78;3.72;;;;;;;33.42;100.00;100456.13;5072182;28;20068;-73
2023/08/17 11:08:06;;;;;;;4.05;3.55;;;;;;;33.37;100.00;100457.66;5054655;28;20630;-73
2023/08/17 11:10:33;;;;;;;6.70;3.60;;;;;;;33.67;100.00;100436.50;5072000;28;20033;-73
2023/08/17 11:12:59;;;;;;;6.88;3.78;;;;;;;34.43;100.00;100414.16;5072304;28;20024;-72